Time;durP1;ratioP1;P1;durP2;ratioP2;P2;SDS_P1;SDS_P2;PMS_P1;PMS_P2;Temp;Humidity;BMP_temperature;BMP_pressure;BME280_temperature;BME280_humidity;BME280_pressure;Samples;Min_cycle;Max_cycle;Signal;HPM_P1;HPM_P2
2022/01/13 00:01:42;;;;;;;28.23;17.97;;;;;;;2.43;64.37;102350.72;10469166;28;20052;-67
2022/01/13 00:06:44;;;;;;;35.13;21.77;;;;;;;2.44;64.17;102336.94;10468559;28;20721;-67
2022/01/13 00:11:48;;;;;;;31.77;19.52;;;;;;;2.43;64.40;102347.28;10469124;28;20175;-68
2022/01/13 00:22:15;;;;;;;31.92;19.23;;;;;;;2.37;64.58;102349.78;10468682;28;20151;-68
2022/01/13 00:27:17;;;;;;;32.55;20.02;;;;;;;2.25;64.63;102357.38;10468768;28;20061;-67
2022/01/13 00:32:21;;;;;;;28.23;17.60;;;;;;;2.11;64.54;102350.31;10467946;28;20150;-67
2022/01/13 00:37:23;;;;;;;27.92;17.52;;;;;;;2.04;64.78;102347.63;10468073;28;20163;-67
2022/01/13 00:42:25;;;;;;;30.98;20.35;;;;;;;2.15;64.63;102348.66;10468289;28;20061;-67
2022/01/13 00:47:29;;;;;;;32.95;19.63;;;;;;;2.01;64.95;102355.34;10467782;28;20122;-66
2022/01/13 00:52:31;;;;;;;30.52;19.77;;;;;;;2.04;64.92;102342.47;10466842;28;20547;-67
2022/01/13 00:57:33;;;;;;;32.85;20.27;;;;;;;2.09;64.88;102336.50;10449353;28;20412;-67
2022/01/13 01:02:35;;;;;;;34.88;21.42;;;;;;;2.11;65.05;102344.31;10467042;28;20092;-67
2022/01/13 01:07:38;;;;;;;31.90;20.77;;;;;;;2.11;65.11;102352.06;10467408;28;20775;-67
2022/01/13 01:12:40;;;;;;;33.20;19.65;;;;;;;1.99;65.06;102363.06;10467235;28;20160;-67
2022/01/13 01:17:47;;;;;;;33.08;21.13;;;;;;;2.00;64.93;102358.75;10466859;28;20063;-66
2022/01/13 01:27:56;;;;;;;36.90;22.27;;;;;;;2.06;64.82;102357.13;10467118;28;20092;-66
2022/01/13 01:32:58;;;;;;;36.90;22.88;;;;;;;2.01;64.91;102365.69;10466969;28;20094;-66
2022/01/13 01:38:00;;;;;;;39.38;24.48;;;;;;;1.90;65.00;102367.22;10448897;28;20084;-65
2022/01/13 01:43:02;;;;;;;36.13;23.30;;;;;;;1.99;65.17;102370.78;10467098;28;20060;-66
2022/01/13 01:48:04;;;;;;;37.45;22.75;;;;;;;2.04;65.18;102376.03;10466494;28;20056;-65
2022/01/13 01:53:06;;;;;;;38.97;23.42;;;;;;;1.91;65.28;102377.56;10448622;28;20131;-66
2022/01/13 01:58:10;;;;;;;38.65;23.38;;;;;;;2.03;65.28;102369.16;10448890;28;20140;-65
2022/01/13 02:03:11;;;;;;;35.50;22.00;;;;;;;1.93;65.30;102368.13;10466588;28;20408;-66
2022/01/13 02:08:13;;;;;;;34.85;21.00;;;;;;;1.97;65.17;102371.66;10473789;28;20075;-65
2022/01/13 02:13:21;;;;;;;30.20;18.20;;;;;;;1.86;65.28;102370.59;10455940;28;20152;-65
2022/01/13 02:18:23;;;;;;;27.65;17.13;;;;;;;1.74;65.35;102363.56;10474671;28;20056;-65
2022/01/13 02:23:34;;;;;;;26.90;16.83;;;;;;;1.77;65.34;102365.31;10473003;28;20424;-66
2022/01/13 02:28:36;;;;;;;31.77;19.30;;;;;;;1.79;65.51;102355.88;10473682;28;20428;-65
2022/01/13 02:33:38;;;;;;;26.75;16.88;;;;;;;1.62;65.76;102357.34;10473550;28;20548;-65
2022/01/13 02:38:40;;;;;;;30.02;16.42;;;;;;;1.70;65.58;102348.00;10472672;28;20161;-65
2022/01/13 02:43:44;;;;;;;28.65;15.82;;;;;;;1.63;65.62;102356.50;10472644;28;20156;-65
2022/01/13 02:48:48;;;;;;;26.77;16.60;;;;;;;1.60;65.77;102359.03;10472635;28;20866;-65
2022/01/13 02:53:49;;;;;;;26.02;17.25;;;;;;;1.61;65.65;102351.31;10471773;28;20056;-65
2022/01/13 02:58:51;;;;;;;25.92;16.10;;;;;;;1.43;65.87;102350.16;10472081;28;20064;-64
2022/01/13 03:03:53;;;;;;;28.42;17.10;;;;;;;1.57;65.95;102343.50;10478105;28;20134;-65
2022/01/13 03:08:55;;;;;;;28.90;17.55;;;;;;;1.71;65.57;102349.72;10479304;28;20139;-64
2022/01/13 03:13:57;;;;;;;26.45;15.73;;;;;;;1.67;65.44;102355.69;10479245;28;20155;-65
2022/01/13 03:18:59;;;;;;;27.25;15.98;;;;;;;1.50;65.83;102357.16;10479373;28;20113;-65
2022/01/13 03:24:04;;;;;;;25.98;17.23;;;;;;;1.56;66.45;102352.97;10478747;28;20080;-65
2022/01/13 03:34:15;;;;;;;28.48;16.67;;;;;;;1.53;66.10;102368.38;10478189;28;20559;-65
2022/01/13 03:39:17;;;;;;;24.90;15.20;;;;;;;1.59;66.09;102357.28;10477688;28;20408;-65
2022/01/13 03:44:27;;;;;;;28.17;17.10;;;;;;;1.64;66.17;102360.81;10478710;28;20492;-65
2022/01/13 03:49:30;;;;;;;26.77;16.20;;;;;;;1.65;65.97;102341.91;10461915;28;20052;-66
2022/01/13 03:54:32;;;;;;;30.42;17.90;;;;;;;1.74;65.91;102342.06;10459803;28;20143;-65
2022/01/13 03:59:47;;;;;;;27.13;17.23;;;;;;;1.77;65.90;102331.75;10476503;28;20167;-66
2022/01/13 04:04:50;;;;;;;31.52;20.00;;;;;;;1.70;66.00;102333.41;10473576;28;20060;-65
2022/01/13 04:09:54;;;;;;;38.42;20.60;;;;;;;1.67;66.12;102325.63;10470857;28;20053;-65
2022/01/13 04:14:59;;;;;;;36.75;21.55;;;;;;;1.64;65.88;102330.75;10469523;28;20424;-65
2022/01/13 04:20:01;;;;;;;37.40;21.83;;;;;;;1.48;66.51;102326.22;10469883;28;20141;-65
2022/01/13 04:25:04;;;;;;;38.75;22.05;;;;;;;1.53;66.28;102324.53;10469697;28;20136;-65
2022/01/13 04:35:17;;;;;;;36.75;21.90;;;;;;;1.48;66.63;102312.44;10469538;28;20088;-65
2022/01/13 04:40:19;;;;;;;38.50;21.60;;;;;;;1.48;66.62;102309.84;10468781;28;20070;-65
2022/01/13 04:45:22;;;;;;;39.15;22.77;;;;;;;1.53;66.38;102301.34;10469470;28;20177;-65
2022/01/13 04:50:24;;;;;;;40.13;23.10;;;;;;;1.60;66.58;102310.03;10469407;28;20060;-65
2022/01/13 04:55:29;;;;;;;39.97;22.52;;;;;;;1.51;66.65;102313.34;10468325;28;20456;-65
2022/01/13 05:00:33;;;;;;;38.83;22.98;;;;;;;1.59;66.50;102308.28;10468890;28;20064;-64
2022/01/13 05:05:35;;;;;;;41.38;23.92;;;;;;;1.50;66.78;102314.22;10468051;28;20074;-65
2022/01/13 05:10:36;;;;;;;82.03;46.25;;;;;;;1.38;66.92;102317.44;10468061;28;20156;-65
2022/01/13 05:15:40;;;;;;;91.28;51.33;;;;;;;1.27;67.32;102323.28;10468054;28;20049;-65
2022/01/13 05:20:48;;;;;;;44.65;24.83;;;;;;;1.31;67.27;102335.38;10468386;28;20147;-64
2022/01/13 05:25:50;;;;;;;43.50;23.90;;;;;;;1.32;67.16;102349.97;10468267;28;20070;-65
2022/01/13 05:30:52;;;;;;;39.33;23.15;;;;;;;1.49;67.01;102356.28;10467570;28;20060;-65
2022/01/13 05:35:54;;;;;;;45.80;24.80;;;;;;;1.54;66.84;102346.06;10449633;28;20127;-64
2022/01/13 05:40:58;;;;;;;48.85;25.67;;;;;;;1.53;66.97;102340.03;10474679;28;20393;-65
2022/01/13 05:46:00;;;;;;;42.67;23.33;;;;;;;1.51;66.86;102343.41;10476468;28;20146;-65
2022/01/13 05:51:01;;;;;;;38.95;23.40;;;;;;;1.46;67.16;102345.94;10476186;28;20137;-65
2022/01/13 05:56:03;;;;;;;42.80;24.45;;;;;;;1.60;67.12;102326.38;10475547;28;20076;-66
2022/01/13 06:01:06;;;;;;;39.58;22.85;;;;;;;1.56;66.88;102326.31;10475561;28;20060;-65
2022/01/13 06:06:08;;;;;;;43.85;24.98;;;;;;;1.55;66.89;102324.56;10475338;28;20048;-64
2022/01/13 06:11:10;;;;;;;51.58;26.80;;;;;;;1.51;67.14;102323.66;10474701;28;20062;-65
2022/01/13 06:16:12;;;;;;;45.90;25.60;;;;;;;1.58;67.02;102329.78;10475509;28;20063;-65
2022/01/13 06:21:13;;;;;;;46.58;25.65;;;;;;;1.57;67.00;102333.19;10474835;28;20068;-65
2022/01/13 06:26:15;;;;;;;45.15;25.08;;;;;;;1.52;67.04;102324.53;10474272;28;20053;-65
2022/01/13 06:31:17;;;;;;;43.22;24.58;;;;;;;1.51;67.08;102323.66;10474867;28;20136;-65
2022/01/13 06:36:19;;;;;;;46.80;26.33;;;;;;;1.52;67.19;102319.38;10474575;28;20135;-65
2022/01/13 06:41:20;;;;;;;46.00;25.27;;;;;;;1.46;67.30;102321.88;10473178;28;20147;-65
2022/01/13 06:46:23;;;;;;;45.42;23.70;;;;;;;1.51;67.18;102333.09;10456123;28;20514;-65
2022/01/13 06:51:25;;;;;;;50.08;26.48;;;;;;;1.56;66.84;102345.25;10472329;28;20056;-65
2022/01/13 06:56:27;;;;;;;69.70;33.35;;;;;;;1.49;66.92;102360.56;10455696;28;20143;-65
2022/01/13 07:01:29;;;;;;;53.53;28.58;;;;;;;1.54;67.04;102361.53;10471733;28;20056;-65
2022/01/13 07:06:33;;;;;;;49.25;30.17;;;;;;;1.43;67.28;102365.63;10473180;28;20056;-65
2022/01/13 07:11:35;;;;;;;53.53;28.45;;;;;;;1.42;67.42;102353.59;10473266;28;20067;-65
2022/01/13 07:16:39;;;;;;;46.28;25.83;;;;;;;1.44;67.34;102357.06;10471007;28;20122;-65
2022/01/13 07:21:44;;;;;;;47.35;25.10;;;;;;;1.44;67.57;102364.81;10471472;28;20060;-67
2022/01/13 07:26:46;;;;;;;43.10;23.90;;;;;;;1.36;67.48;102362.09;10450358;28;20391;-66
2022/01/13 07:31:48;;;;;;;45.17;24.05;;;;;;;1.41;67.43;102367.31;10473300;28;20139;-64
2022/01/13 07:36:50;;;;;;;42.17;24.52;;;;;;;1.38;67.43;102369.00;10454155;28;20129;-64
2022/01/13 07:41:52;;;;;;;44.67;24.52;;;;;;;1.35;67.28;102368.09;10469262;28;20167;-66
2022/01/13 07:46:56;;;;;;;47.95;26.33;;;;;;;1.50;67.07;102372.63;10453981;28;20048;-67
2022/01/13 07:51:58;;;;;;;44.72;24.30;;;;;;;1.56;66.91;102380.47;10471849;28;20144;-64
2022/01/13 07:57:00;;;;;;;45.17;23.52;;;;;;;1.57;66.62;102383.06;10470462;28;20060;-66
2022/01/13 08:02:03;;;;;;;42.92;22.48;;;;;;;1.61;66.64;102389.13;10472369;28;20060;-66
2022/01/13 08:07:05;;;;;;;45.33;24.48;;;;;;;1.48;66.85;102400.09;10454453;28;20048;-66
2022/01/13 08:12:08;;;;;;;44.08;22.55;;;;;;;1.39;66.94;102403.41;10454009;28;20449;-67
2022/01/13 08:17:19;;;;;;;39.58;21.80;;;;;;;1.49;66.82;102401.81;10470623;28;20053;-66
2022/01/13 08:22:21;;;;;;;38.90;22.55;;;;;;;1.52;66.52;102401.91;10468876;28;20122;-66
2022/01/13 08:27:22;;;;;;;46.10;24.85;;;;;;;1.60;66.74;102406.34;10468759;28;20138;-66
2022/01/13 08:32:24;;;;;;;43.25;23.48;;;;;;;1.54;66.71;102400.22;10469885;28;20056;-66
2022/01/13 08:37:26;;;;;;;39.75;22.88;;;;;;;1.69;66.36;102400.44;10468769;28;20048;-66
2022/01/13 08:42:28;;;;;;;43.45;24.00;;;;;;;1.74;66.43;102393.66;10467822;28;20599;-67
2022/01/13 08:47:30;;;;;;;53.83;27.17;;;;;;;1.84;66.16;102390.34;10468902;28;20512;-66
2022/01/13 08:52:33;;;;;;;50.28;26.67;;;;;;;1.77;66.24;102393.69;10468527;28;20088;-66
2022/01/13 08:57:35;;;;;;;56.20;28.15;;;;;;;1.71;66.71;102394.47;10466755;28;20147;-66
2022/01/13 09:02:36;;;;;;;51.78;28.80;;;;;;;1.81;66.27;102392.88;10467145;28;20129;-66
2022/01/13 09:07:39;;;;;;;45.10;26.77;;;;;;;1.88;66.29;102382.69;10450304;28;20048;-66
2022/01/13 09:12:41;;;;;;;49.88;25.52;;;;;;;1.80;66.26;102380.84;10467825;28;20520;-66
2022/01/13 09:17:44;;;;;;;40.88;24.05;;;;;;;1.88;66.56;102398.19;10468022;28;20624;-66
2022/01/13 09:22:47;;;;;;;49.40;25.95;;;;;;;1.74;66.25;102403.97;10466022;28;20064;-66
2022/01/13 09:27:49;;;;;;;48.45;25.38;;;;;;;1.73;66.35;102412.53;10467729;28;20107;-66
2022/01/13 09:32:51;;;;;;;58.78;28.25;;;;;;;1.93;66.11;102406.00;10467673;28;20048;-66
2022/01/13 09:37:52;;;;;;;53.65;26.52;;;;;;;2.00;65.84;102411.25;10467074;28;20049;-66
2022/01/13 09:42:54;;;;;;;49.90;26.20;;;;;;;1.85;65.83;102420.47;10464668;28;20145;-66
2022/01/13 09:47:57;;;;;;;58.20;28.60;;;;;;;1.94;65.93;102415.44;10461978;28;20456;-66
2022/01/13 09:52:59;;;;;;;54.17;27.67;;;;;;;1.87;65.76;102426.53;10464653;28;20171;-66
2022/01/13 09:58:05;;;;;;;55.33;27.52;;;;;;;1.95;65.95;102417.22;10446832;28;20534;-66
2022/01/13 10:03:26;;;;;;;54.75;27.13;;;;;;;2.10;65.30;102418.28;10464801;28;20053;-67
2022/01/13 10:08:43;;;;;;;44.97;24.23;;;;;;;2.10;65.52;102425.16;10465630;28;20140;-67
2022/01/13 10:13:51;;;;;;;40.75;23.52;;;;;;;2.19;65.67;102420.97;10463474;28;20472;-63
2022/01/13 10:18:53;;;;;;;40.20;22.48;;;;;;;2.40;65.16;102422.13;10464574;28;20045;-63
2022/01/13 10:24:06;;;;;;;43.08;24.75;;;;;;;2.55;64.89;102420.63;10464491;28;20559;-63
2022/01/13 10:29:08;;;;;;;38.55;22.40;;;;;;;2.58;64.61;102420.63;10472469;28;20063;-63
2022/01/13 10:34:23;;;;;;;40.33;23.83;;;;;;;2.69;64.06;102413.03;10466604;28;20300;-63
2022/01/13 10:40:01;;;;;;;45.45;24.13;;;;;;;2.63;63.79;102412.94;10468589;28;20440;-63
2022/01/13 10:45:19;;;;;;;41.97;24.50;;;;;;;2.64;64.36;102407.78;10469332;28;20058;-63
2022/01/13 10:50:25;;;;;;;40.85;22.67;;;;;;;2.89;63.98;102393.44;10467419;28;20052;-63
2022/01/13 10:55:26;;;;;;;37.38;21.98;;;;;;;2.96;63.77;102390.94;10467100;28;20082;-63
2022/01/13 11:00:49;;;;;;;36.65;21.27;;;;;;;3.20;63.29;102376.50;10469389;28;20389;-63
2022/01/13 11:05:57;;;;;;;37.80;22.70;;;;;;;3.18;62.97;102370.47;10469701;28;20155;-64
2022/01/13 11:11:03;;;;;;;33.10;20.95;;;;;;;3.10;63.17;102372.97;10468188;28;20056;-63
2022/01/13 11:16:05;;;;;;;37.85;22.30;;;;;;;3.23;63.02;102371.38;10452170;28;20186;-63
2022/01/13 11:21:07;;;;;;;35.30;20.75;;;;;;;3.22;63.16;102351.53;10470471;28;20079;-63
2022/01/13 11:26:12;;;;;;;30.80;19.35;;;;;;;3.29;62.63;102343.00;10469547;28;20063;-63
2022/01/13 11:31:14;;;;;;;33.25;19.95;;;;;;;3.41;62.79;102345.66;10469420;28;21287;-63
2022/01/13 11:36:17;;;;;;;33.53;19.70;;;;;;;3.46;62.38;102350.00;10469723;28;20056;-63
2022/01/13 11:41:19;;;;;;;31.35;18.70;;;;;;;3.56;62.10;102346.63;10452783;28;20071;-63
2022/01/13 11:46:22;;;;;;;33.17;19.10;;;;;;;3.53;61.79;102351.81;10469224;28;20055;-63
2022/01/13 11:51:24;;;;;;;35.67;20.20;;;;;;;3.62;61.79;102345.84;10470162;28;20601;-63
2022/01/13 11:56:28;;;;;;;32.17;20.25;;;;;;;3.50;61.80;102340.53;10467425;28;20076;-64
2022/01/13 12:01:32;;;;;;;34.13;20.20;;;;;;;3.63;61.88;102332.03;10469136;28;20523;-63
2022/01/13 12:06:46;;;;;;;33.60;20.48;;;;;;;3.68;61.07;102330.34;10467636;28;20589;-63
2022/01/13 12:11:55;;;;;;;44.67;26.33;;;;;;;3.75;61.60;102337.28;10468300;28;20052;-63
2022/01/13 12:17:09;;;;;;;34.33;19.98;;;;;;;3.71;61.61;102326.06;10467218;28;20486;-63
2022/01/13 12:22:21;;;;;;;31.30;19.17;;;;;;;3.70;61.07;102307.94;10450676;28;20114;-63
2022/01/13 12:27:44;;;;;;;32.25;18.25;;;;;;;3.36;61.72;102312.00;10466883;28;20060;-63
2022/01/13 12:32:50;;;;;;;33.25;19.02;;;;;;;3.59;61.25;102319.94;10449607;28;20052;-64
2022/01/13 12:38:06;;;;;;;30.95;19.75;;;;;;;3.74;61.26;102309.69;10467045;28;20546;-63
2022/01/13 12:48:48;;;;;;;29.70;17.60;;;;;;;3.92;60.89;102289.09;10465487;28;20056;-63
2022/01/13 12:53:51;;;;;;;28.60;16.50;;;;;;;3.91;60.85;102281.31;10467442;28;20055;-63
2022/01/13 12:58:56;;;;;;;25.45;16.42;;;;;;;3.49;61.57;102272.44;10462685;28;20509;-63
2022/01/13 13:04:12;;;;;;;31.17;17.58;;;;;;;3.44;60.78;102262.91;10466970;28;20060;-63
2022/01/13 13:09:20;;;;;;;32.10;17.55;;;;;;;3.21;61.56;102267.06;10466252;28;20063;-63
2022/01/13 13:19:58;;;;;;;31.98;18.23;;;;;;;3.07;62.68;102271.28;10464989;28;20049;-63
2022/01/13 13:25:00;;;;;;;29.45;17.85;;;;;;;3.38;61.78;102268.03;10466328;28;20056;-62
2022/01/13 13:30:02;;;;;;;33.70;18.83;;;;;;;3.29;61.96;102268.88;10466916;28;20052;-62
2022/01/13 13:35:13;;;;;;;30.40;17.42;;;;;;;3.30;61.67;102264.53;10465519;28;20114;-63
2022/01/13 13:40:25;;;;;;;31.90;19.60;;;;;;;3.46;61.73;102263.78;10463960;28;20155;-63
2022/01/13 13:45:27;;;;;;;28.02;16.40;;;;;;;3.69;61.61;102269.97;10457352;28;20056;-60
2022/01/13 13:50:30;;;;;;;26.00;16.85;;;;;;;3.67;61.31;102264.78;10463627;28;20571;-60
2022/01/13 13:55:34;;;;;;;27.63;17.27;;;;;;;3.67;61.87;102267.38;10463667;28;20075;-61
2022/01/13 14:00:36;;;;;;;25.45;16.05;;;;;;;3.93;61.61;102270.13;10467014;28;20070;-61
2022/01/13 14:05:39;;;;;;;26.15;16.08;;;;;;;3.97;61.29;102253.72;10472268;28;20056;-61
2022/01/13 14:10:40;;;;;;;31.17;18.08;;;;;;;3.80;61.12;102263.97;10470533;28;20110;-61
2022/01/13 14:15:48;;;;;;;30.67;18.75;;;;;;;3.83;61.25;102257.97;10456412;28;20084;-61
2022/01/13 14:20:49;;;;;;;27.10;16.20;;;;;;;3.82;61.44;102257.09;10473338;28;20110;-61
2022/01/13 14:26:00;;;;;;;26.90;15.15;;;;;;;3.87;61.14;102244.19;10472525;28;20548;-60
2022/01/13 14:31:08;;;;;;;24.63;15.48;;;;;;;3.84;61.33;102246.78;10455547;28;20667;-61
2022/01/13 14:36:17;;;;;;;26.85;15.23;;;;;;;3.79;61.20;102245.84;10456002;28;20408;-61
2022/01/13 14:41:27;;;;;;;26.25;15.68;;;;;;;3.80;61.01;102245.03;10470935;28;20114;-61
2022/01/13 14:46:56;;;;;;;25.50;16.15;;;;;;;3.72;61.35;102249.28;10468700;28;20055;-61
2022/01/13 14:51:59;;;;;;;26.40;15.88;;;;;;;3.54;61.52;102244.88;10471482;28;20058;-60
2022/01/13 14:57:02;;;;;;;30.58;16.73;;;;;;;3.55;61.92;102245.72;10471821;28;20135;-61
2022/01/13 15:02:04;;;;;;;28.05;17.00;;;;;;;3.57;61.77;102241.44;10469546;28;20058;-61
2022/01/13 15:07:06;;;;;;;26.45;16.50;;;;;;;3.51;62.16;102228.47;10470404;28;20619;-61
2022/01/13 15:12:08;;;;;;;27.17;16.17;;;;;;;3.44;62.25;102221.50;10470883;28;20132;-61
2022/01/13 15:17:10;;;;;;;24.92;16.45;;;;;;;3.33;62.28;102218.88;10471913;28;20071;-61
2022/01/13 15:22:11;;;;;;;28.35;17.38;;;;;;;3.26;62.57;102224.00;10470982;28;20161;-61
2022/01/13 15:27:13;;;;;;;29.13;16.70;;;;;;;3.14;62.60;102213.56;10470621;28;20098;-61
2022/01/13 15:32:19;;;;;;;27.88;16.15;;;;;;;3.05;62.93;102207.47;10466031;28;20088;-60
2022/01/13 15:37:21;;;;;;;29.00;18.00;;;;;;;2.94;63.02;102203.97;10470146;28;20136;-61
2022/01/13 15:42:23;;;;;;;31.00;17.95;;;;;;;2.81;63.31;102207.31;10469742;28;20487;-61
2022/01/13 15:47:25;;;;;;;28.80;16.55;;;;;;;2.56;63.66;102205.34;10452480;28;20153;-61
2022/01/13 15:52:27;;;;;;;33.67;17.45;;;;;;;2.46;64.08;102205.28;10469572;28;20169;-61
2022/01/13 15:57:29;;;;;;;28.33;17.00;;;;;;;2.38;64.10;102212.94;10469317;28;20058;-61
2022/01/13 16:02:31;;;;;;;32.50;18.58;;;;;;;2.25;64.40;102208.50;10467135;28;20412;-61
2022/01/13 16:07:32;;;;;;;31.13;19.13;;;;;;;2.11;64.82;102204.94;10468593;28;20136;-61
2022/01/13 16:12:35;;;;;;;33.30;19.23;;;;;;;2.09;64.70;102204.88;10468962;28;20088;-60
2022/01/13 16:17:39;;;;;;;32.63;18.73;;;;;;;1.97;64.89;102212.50;10469025;28;20067;-60
2022/01/13 16:22:42;;;;;;;34.88;19.83;;;;;;;1.73;65.40;102229.38;10467743;28;20198;-61
2022/01/13 16:27:43;;;;;;;32.10;19.13;;;;;;;1.63;65.67;102227.53;10468324;28;20548;-61
2022/01/13 16:32:47;;;;;;;32.65;19.58;;;;;;;1.65;65.89;102223.25;10468616;28;20499;-60
2022/01/13 16:37:54;;;;;;;39.90;19.98;;;;;;;1.60;65.80;102222.34;10450546;28;20052;-60
2022/01/13 16:43:00;;;;;;;35.60;20.45;;;;;;;1.55;65.87;102217.13;10449861;28;20587;-60
2022/01/13 16:48:04;;;;;;;40.20;21.45;;;;;;;1.47;65.93;102223.03;10464451;28;20055;-61
2022/01/13 16:53:06;;;;;;;36.08;21.25;;;;;;;1.43;65.87;102214.38;10465857;28;20378;-63
2022/01/13 16:58:09;;;;;;;38.13;20.27;;;;;;;1.33;66.09;102217.69;10466840;28;20137;-63
2022/01/13 17:03:11;;;;;;;38.90;21.45;;;;;;;1.22;66.22;102222.69;10463662;28;20218;-63
2022/01/13 17:08:17;;;;;;;42.75;22.95;;;;;;;1.20;66.57;102218.34;10448404;28;20110;-63
2022/01/13 17:13:19;;;;;;;45.58;23.52;;;;;;;1.17;66.48;102216.59;10439849;28;20049;-64
2022/01/13 17:18:21;;;;;;;38.03;21.13;;;;;;;1.08;66.86;102213.00;10466163;28;20084;-63
2022/01/13 17:23:22;;;;;;;44.03;22.70;;;;;;;1.01;66.73;102209.50;10465704;28;20061;-63
2022/01/13 17:28:25;;;;;;;45.05;24.38;;;;;;;0.99;66.94;102200.84;10465695;28;20657;-63
2022/01/13 17:33:27;;;;;;;48.67;24.45;;;;;;;1.01;67.01;102204.34;10466142;28;20139;-63
2022/01/13 17:38:29;;;;;;;61.22;30.60;;;;;;;1.00;66.83;102202.59;10466679;28;20080;-63
2022/01/13 17:43:31;;;;;;;55.10;30.48;;;;;;;0.95;66.91;102201.63;10441513;28;20598;-63
2022/01/13 17:48:33;;;;;;;51.72;25.67;;;;;;;0.74;67.30;102205.59;10465642;28;20059;-63
2022/01/13 17:53:35;;;;;;;52.30;24.90;;;;;;;0.59;67.48;102208.78;10463697;28;20135;-63
2022/01/13 17:58:37;;;;;;;49.42;25.17;;;;;;;0.45;67.67;102207.69;10465312;28;20523;-63
2022/01/13 18:03:40;;;;;;;56.00;26.00;;;;;;;0.46;67.95;102201.69;10467380;28;20143;-63
2022/01/13 18:08:42;;;;;;;53.70;26.02;;;;;;;0.53;67.90;102211.25;10460498;28;20052;-63
2022/01/13 18:13:43;;;;;;;50.03;26.67;;;;;;;0.56;67.56;102200.16;10437354;28;20915;-63
2022/01/13 18:18:45;;;;;;;64.25;31.30;;;;;;;0.59;67.46;102211.34;10461411;28;20079;-63
2022/01/13 18:23:47;;;;;;;62.10;31.52;;;;;;;0.58;67.48;102209.63;10462047;28;20076;-63
2022/01/13 18:28:50;;;;;;;71.68;34.70;;;;;;;0.66;67.48;102215.78;10463868;28;20055;-63
2022/01/13 18:33:55;;;;;;;77.65;33.92;;;;;;;0.59;67.63;102219.06;10456791;28;20044;-63
2022/01/13 18:38:59;;;;;;;81.40;38.75;;;;;;;0.59;67.67;102205.38;10463463;28;20056;-63
2022/01/13 18:44:01;;;;;;;69.97;33.42;;;;;;;0.68;67.84;102203.78;10461240;28;20052;-63
2022/01/13 18:49:04;;;;;;;70.75;33.45;;;;;;;0.86;67.63;102201.50;10470096;28;20064;-63
2022/01/13 18:54:06;;;;;;;58.85;27.70;;;;;;;1.00;67.33;102188.84;10468325;28;20512;-63
2022/01/13 18:59:08;;;;;;;56.35;30.10;;;;;;;1.14;67.05;102192.47;10451926;28;20107;-63
2022/01/13 19:04:15;;;;;;;50.70;26.42;;;;;;;1.28;66.83;102188.38;10469904;28;20634;-63
2022/01/13 19:09:19;;;;;;;61.70;30.50;;;;;;;1.11;66.91;102187.31;10465826;28;20100;-63
2022/01/13 19:14:21;;;;;;;61.47;27.45;;;;;;;1.04;67.02;102185.47;10468793;28;20053;-63
2022/01/13 19:19:27;;;;;;;56.55;27.67;;;;;;;1.15;67.16;102179.63;10468707;28;20056;-63
2022/01/13 19:24:29;;;;;;;95.07;34.95;;;;;;;1.33;67.05;102189.31;10466696;28;20543;-63
2022/01/13 19:29:31;;;;;;;62.75;32.55;;;;;;;1.43;66.63;102177.41;10469683;28;20303;-63
2022/01/13 19:34:33;;;;;;;72.70;36.42;;;;;;;1.50;66.57;102181.81;10467758;28;20083;-63
2022/01/13 19:39:35;;;;;;;80.63;38.38;;;;;;;1.45;66.37;102180.88;10469098;28;20500;-63
2022/01/13 19:44:37;;;;;;;104.22;38.40;;;;;;;1.35;66.34;102180.78;10467976;28;20056;-63
2022/01/13 19:49:39;;;;;;;849.53;74.07;;;;;;;1.04;67.14;102180.31;10466337;28;20484;-63
2022/01/13 19:54:41;;;;;;;441.85;51.97;;;;;;;1.08;67.55;102167.50;10470222;28;20136;-63
2022/01/13 19:59:44;;;;;;;200.73;44.28;;;;;;;1.19;67.64;102163.38;10468565;28;20385;-63
2022/01/13 20:04:48;;;;;;;100.90;36.55;;;;;;;1.33;67.23;102154.13;10463830;28;20063;-63
2022/01/13 20:09:50;;;;;;;119.60;41.38;;;;;;;1.29;67.16;102152.34;10467552;28;20127;-63
2022/01/13 20:14:53;;;;;;;139.52;33.83;;;;;;;1.20;67.83;102147.06;10466449;28;20063;-64
2022/01/13 20:19:56;;;;;;;230.60;39.75;;;;;;;1.25;67.80;102141.97;10467942;28;20136;-64
2022/01/13 20:24:58;;;;;;;286.15;36.67;;;;;;;1.06;67.71;102143.41;10465788;28;20155;-64
2022/01/13 20:30:00;;;;;;;194.25;34.28;;;;;;;1.06;67.89;102137.41;10459525;28;20844;-64
2022/01/13 20:35:03;;;;;;;287.08;35.25;;;;;;;1.03;68.07;102133.09;10450913;28;20139;-64
2022/01/13 20:40:06;;;;;;;328.55;36.33;;;;;;;0.96;68.04;102135.53;10467598;28;20063;-64
2022/01/13 20:45:09;;;;;;;238.63;33.17;;;;;;;0.97;68.22;102134.69;10467997;28;20064;-64
2022/01/13 20:50:11;;;;;;;467.10;43.75;;;;;;;0.95;68.29;102144.13;10464080;28;20063;-65
2022/01/13 20:55:13;;;;;;;138.23;30.15;;;;;;;0.94;68.45;102132.94;10462146;28;20059;-65
2022/01/13 21:00:15;;;;;;;242.82;31.80;;;;;;;0.88;68.23;102135.44;10464658;28;20228;-64
2022/01/13 21:05:17;;;;;;;319.08;33.22;;;;;;;0.86;68.40;102133.66;10465465;28;20191;-64
2022/01/13 21:10:19;;;;;;;371.75;34.28;;;;;;;0.76;68.50;102132.69;10464035;28;20059;-64
2022/01/13 21:15:22;;;;;;;260.10;33.08;;;;;;;0.87;68.45;102130.25;10464081;28;20139;-65
2022/01/13 21:20:24;;;;;;;516.25;41.33;;;;;;;0.74;68.15;102128.34;10463385;28;20052;-65
2022/01/13 21:25:26;;;;;;;407.75;34.42;;;;;;;0.46;68.83;102121.91;10462271;28;20147;-64
2022/01/13 21:30:28;;;;;;;661.10;44.05;;;;;;;0.46;68.93;102125.31;10463861;28;20044;-64
2022/01/13 21:35:30;;;;;;;390.25;32.15;;;;;;;0.56;68.97;102123.78;10463144;28;20052;-64
2022/01/13 21:40:32;;;;;;;455.15;37.97;;;;;;;0.57;68.93;102125.50;10464339;28;20064;-65
2022/01/13 21:45:35;;;;;;;409.77;36.03;;;;;;;0.69;68.66;102133.41;10463791;28;20064;-64
2022/01/13 21:50:36;;;;;;;340.25;34.20;;;;;;;0.76;68.53;102132.69;10463794;28;20130;-64
2022/01/13 21:55:48;;;;;;;813.75;50.92;;;;;;;0.51;68.76;102146.88;10463941;28;20056;-64
2022/01/13 22:00:50;;;;;;;776.85;51.40;;;;;;;0.49;68.82;102143.41;10459620;28;20044;-65
2022/01/13 22:05:52;;;;;;;404.70;31.33;;;;;;;0.39;69.03;102151.81;10464689;28;20052;-64
2022/01/13 22:10:56;;;;;;;739.25;45.42;;;;;;;0.36;69.02;102151.75;10464823;28;20052;-64
2022/01/13 22:16:01;;;;;;;371.90;33.08;;;;;;;0.32;69.23;102149.13;10464254;28;20077;-64
2022/01/13 22:21:05;;;;;;;314.02;30.75;;;;;;;0.39;69.34;102141.53;10468593;28;20152;-64
2022/01/13 22:26:07;;;;;;;442.25;36.63;;;;;;;0.59;69.18;102139.25;10452398;28;20058;-64
2022/01/13 22:31:09;;;;;;;387.98;32.05;;;;;;;0.70;69.11;102132.59;10454140;28;20103;-65
2022/01/13 22:36:11;;;;;;;695.92;45.83;;;;;;;0.76;68.54;102126.66;10472058;28;20117;-64
2022/01/13 22:41:13;;;;;;;406.38;30.40;;;;;;;0.62;68.65;102123.88;10467745;28;20055;-64
2022/01/13 22:46:15;;;;;;;439.05;32.10;;;;;;;0.46;68.93;102132.19;10467854;28;20155;-64
2022/01/13 22:51:17;;;;;;;447.98;31.38;;;;;;;0.43;69.10;102122.72;10452852;28;20060;-64
2022/01/13 22:56:20;;;;;;;511.58;37.15;;;;;;;0.53;69.06;102118.56;10452449;28;20139;-65
2022/01/13 23:01:22;;;;;;;364.33;33.80;;;;;;;0.66;69.23;102115.34;10469169;28;20156;-65
2022/01/13 23:06:24;;;;;;;312.50;31.80;;;;;;;0.79;69.17;102116.41;10469800;28;20052;-64
2022/01/13 23:11:27;;;;;;;462.10;37.08;;;;;;;0.79;68.90;102100.97;10469965;28;20052;-64
2022/01/13 23:27:11;;;;;;;466.40;46.78;;;;;;;0.68;69.38;102098.22;10466499;28;20159;-65
2022/01/13 23:32:13;;;;;;;549.30;37.67;;;;;;;0.71;69.08;102087.94;10468026;28;20092;-65
2022/01/13 23:37:16;;;;;;;532.45;42.60;;;;;;;0.69;68.64;102086.22;10468501;28;20548;-64